Terminal Aerodrome Forecast
Issued by NWS

Home | Current Version | Previous Version | Text Only | Print | Product List | Glossary On
Versions: 1 2 3 4 5 6 7 8 9 10 11 12 13 14 15 16 17 18
376
FTUS46 KPDT 131725
TAFRDM
TAF
KRDM 131725Z 1318/1418 14005KT P6SM SCT120
     FM132200 22009KT P6SM BKN090
     FM140200 18006KT P6SM SCT050 OVC080
     FM140600 18009KT P6SM VCSH BKN030 OVC050
     FM140900 19009KT P6SM -SHRA BKN025 OVC035=

USA.gov is the U.S. government's official web portal to all federal, state and local government web resources and services.